sensor_id;sensor_type;location;lat;lon;timestamp;temperature;humidity
37786;DHT22;23625;48.784;9.336;2023-12-20T00:01:05;6.90;99.90
37786;DHT22;23625;48.784;9.336;2023-12-20T00:03:30;6.90;99.90
37786;DHT22;23625;48.784;9.336;2023-12-20T00:05:56;6.90;99.90
37786;DHT22;23625;48.784;9.336;2023-12-20T00:08:22;6.90;99.90
37786;DHT22;23625;48.784;9.336;2023-12-20T00:10:47;6.80;99.90
37786;DHT22;23625;48.784;9.336;2023-12-20T00:13:13;6.80;99.90
37786;DHT22;23625;48.784;9.336;2023-12-20T00:15:38;6.80;99.90
37786;DHT22;23625;48.784;9.336;2023-12-20T00:18:04;6.70;99.90
37786;DHT22;23625;48.784;9.336;2023-12-20T00:20:30;6.80;99.90
37786;DHT22;23625;48.784;9.336;2023-12-20T00:22:57;6.80;99.90
37786;DHT22;23625;48.784;9.336;2023-12-20T00:25:26;6.80;99.90
37786;DHT22;23625;48.784;9.336;2023-12-20T00:27:52;6.80;99.90
37786;DHT22;23625;48.784;9.336;2023-12-20T00:30:17;6.70;99.90
37786;DHT22;23625;48.784;9.336;2023-12-20T00:32:43;6.70;99.90
37786;DHT22;23625;48.784;9.336;2023-12-20T00:35:15;6.60;99.90
37786;DHT22;23625;48.784;9.336;2023-12-20T00:37:42;6.70;99.90
37786;DHT22;23625;48.784;9.336;2023-12-20T00:40:08;6.70;99.90
37786;DHT22;23625;48.784;9.336;2023-12-20T00:42:34;6.70;99.90
37786;DHT22;23625;48.784;9.336;2023-12-20T00:45:00;6.70;99.90
37786;DHT22;23625;48.784;9.336;2023-12-20T00:47:26;6.70;99.90
37786;DHT22;23625;48.784;9.336;2023-12-20T00:49:51;6.60;99.90
37786;DHT22;23625;48.784;9.336;2023-12-20T00:52:18;6.60;99.90
37786;DHT22;23625;48.784;9.336;2023-12-20T00:54:44;6.60;99.90
37786;DHT22;23625;48.784;9.336;2023-12-20T00:57:10;6.60;99.90
37786;DHT22;23625;48.784;9.336;2023-12-20T00:59:36;6.50;99.90
37786;DHT22;23625;48.784;9.336;2023-12-20T01:02:01;6.50;99.90
37786;DHT22;23625;48.784;9.336;2023-12-20T01:04:27;6.50;99.90
37786;DHT22;23625;48.784;9.336;2023-12-20T01:06:53;6.40;99.90
37786;DHT22;23625;48.784;9.336;2023-12-20T01:09:18;6.40;99.90
37786;DHT22;23625;48.784;9.336;2023-12-20T01:11:44;6.40;99.90
37786;DHT22;23625;48.784;9.336;2023-12-20T01:14:11;6.40;99.90
37786;DHT22;23625;48.784;9.336;2023-12-20T01:16:37;6.40;99.90
37786;DHT22;23625;48.784;9.336;2023-12-20T01:19:03;6.30;99.90
37786;DHT22;23625;48.784;9.336;2023-12-20T01:21:28;6.30;99.90
37786;DHT22;23625;48.784;9.336;2023-12-20T01:23:54;6.30;99.90
37786;DHT22;23625;48.784;9.336;2023-12-20T01:26:19;6.30;99.90
37786;DHT22;23625;48.784;9.336;2023-12-20T01:28:45;6.20;99.90
37786;DHT22;23625;48.784;9.336;2023-12-20T01:31:10;6.20;99.90
37786;DHT22;23625;48.784;9.336;2023-12-20T01:33:36;6.10;99.90
37786;DHT22;23625;48.784;9.336;2023-12-20T01:36:02;6.10;99.90
37786;DHT22;23625;48.784;9.336;2023-12-20T01:38:28;6.10;99.90
37786;DHT22;23625;48.784;9.336;2023-12-20T01:40:53;6.00;99.90
37786;DHT22;23625;48.784;9.336;2023-12-20T01:43:19;6.00;99.90
37786;DHT22;23625;48.784;9.336;2023-12-20T01:45:44;6.00;99.90
37786;DHT22;23625;48.784;9.336;2023-12-20T01:48:10;6.00;99.90
37786;DHT22;23625;48.784;9.336;2023-12-20T01:50:36;6.10;99.90
37786;DHT22;23625;48.784;9.336;2023-12-20T01:53:04;6.10;99.90
37786;DHT22;23625;48.784;9.336;2023-12-20T01:55:32;6.10;99.90
37786;DHT22;23625;48.784;9.336;2023-12-20T01:57:59;6.10;99.90
37786;DHT22;23625;48.784;9.336;2023-12-20T02:00:27;6.00;99.90
37786;DHT22;23625;48.784;9.336;2023-12-20T02:02:53;6.10;99.90
37786;DHT22;23625;48.784;9.336;2023-12-20T02:05:21;6.00;99.90
37786;DHT22;23625;48.784;9.336;2023-12-20T02:07:47;6.10;99.90
37786;DHT22;23625;48.784;9.336;2023-12-20T02:10:13;6.00;99.90
37786;DHT22;23625;48.784;9.336;2023-12-20T02:12:39;6.00;99.90
37786;DHT22;23625;48.784;9.336;2023-12-20T02:15:06;6.10;99.90
37786;DHT22;23625;48.784;9.336;2023-12-20T02:17:32;6.00;99.90
37786;DHT22;23625;48.784;9.336;2023-12-20T02:19:59;6.00;99.90
37786;DHT22;23625;48.784;9.336;2023-12-20T02:22:24;6.00;99.90
37786;DHT22;23625;48.784;9.336;2023-12-20T02:24:50;6.00;99.90
37786;DHT22;23625;48.784;9.336;2023-12-20T02:27:18;6.00;99.90
37786;DHT22;23625;48.784;9.336;2023-12-20T02:29:47;6.00;99.90
37786;DHT22;23625;48.784;9.336;2023-12-20T02:32:13;6.00;99.90
37786;DHT22;23625;48.784;9.336;2023-12-20T02:34:39;6.00;99.90
37786;DHT22;23625;48.784;9.336;2023-12-20T02:37:04;6.00;99.90
37786;DHT22;23625;48.784;9.336;2023-12-20T02:39:30;6.00;99.90
37786;DHT22;23625;48.784;9.336;2023-12-20T02:41:56;6.00;99.90
37786;DHT22;23625;48.784;9.336;2023-12-20T02:44:21;6.00;99.90
37786;DHT22;23625;48.784;9.336;2023-12-20T02:46:47;6.00;99.90
37786;DHT22;23625;48.784;9.336;2023-12-20T02:49:13;6.00;99.90
37786;DHT22;23625;48.784;9.336;2023-12-20T02:51:38;5.90;99.90
37786;DHT22;23625;48.784;9.336;2023-12-20T02:54:04;6.00;99.90
37786;DHT22;23625;48.784;9.336;2023-12-20T02:56:31;6.00;99.90
37786;DHT22;23625;48.784;9.336;2023-12-20T02:58:57;6.00;99.90
37786;DHT22;23625;48.784;9.336;2023-12-20T03:01:22;6.00;99.90
37786;DHT22;23625;48.784;9.336;2023-12-20T03:03:48;6.00;99.90
37786;DHT22;23625;48.784;9.336;2023-12-20T03:06:20;5.90;99.90
37786;DHT22;23625;48.784;9.336;2023-12-20T03:08:46;6.00;99.90
37786;DHT22;23625;48.784;9.336;2023-12-20T03:11:11;5.90;99.90
37786;DHT22;23625;48.784;9.336;2023-12-20T03:13:37;5.90;99.90
37786;DHT22;23625;48.784;9.336;2023-12-20T03:16:12;5.90;99.90
37786;DHT22;23625;48.784;9.336;2023-12-20T03:18:39;6.00;99.90
37786;DHT22;23625;48.784;9.336;2023-12-20T03:21:04;6.00;99.90
37786;DHT22;23625;48.784;9.336;2023-12-20T03:23:30;6.00;99.90
37786;DHT22;23625;48.784;9.336;2023-12-20T03:25:58;5.90;99.90
37786;DHT22;23625;48.784;9.336;2023-12-20T03:28:23;5.90;99.90
37786;DHT22;23625;48.784;9.336;2023-12-20T03:30:49;5.90;99.90
37786;DHT22;23625;48.784;9.336;2023-12-20T03:33:15;5.90;99.90
37786;DHT22;23625;48.784;9.336;2023-12-20T03:35:41;6.00;99.90
37786;DHT22;23625;48.784;9.336;2023-12-20T03:38:06;6.00;99.90
37786;DHT22;23625;48.784;9.336;2023-12-20T03:40:32;6.10;99.90
37786;DHT22;23625;48.784;9.336;2023-12-20T03:42:58;6.00;99.90
37786;DHT22;23625;48.784;9.336;2023-12-20T03:45:23;6.10;99.90
37786;DHT22;23625;48.784;9.336;2023-12-20T03:47:49;6.10;99.90
37786;DHT22;23625;48.784;9.336;2023-12-20T03:50:15;6.10;99.90
37786;DHT22;23625;48.784;9.336;2023-12-20T03:52:40;6.00;99.90
37786;DHT22;23625;48.784;9.336;2023-12-20T03:55:06;6.00;99.90
37786;DHT22;23625;48.784;9.336;2023-12-20T03:57:32;6.00;99.90
37786;DHT22;23625;48.784;9.336;2023-12-20T03:59:57;6.00;99.90
37786;DHT22;23625;48.784;9.336;2023-12-20T04:02:23;6.00;99.90
37786;DHT22;23625;48.784;9.336;2023-12-20T04:04:48;6.10;99.90
37786;DHT22;23625;48.784;9.336;2023-12-20T04:07:14;6.10;99.90
37786;DHT22;23625;48.784;9.336;2023-12-20T04:09:41;6.00;99.90
37786;DHT22;23625;48.784;9.336;2023-12-20T04:12:06;6.20;99.90
37786;DHT22;23625;48.784;9.336;2023-12-20T04:14:32;6.20;99.90
37786;DHT22;23625;48.784;9.336;2023-12-20T04:16:58;6.20;99.90
37786;DHT22;23625;48.784;9.336;2023-12-20T04:19:23;6.20;99.90
37786;DHT22;23625;48.784;9.336;2023-12-20T04:21:49;6.10;99.90
37786;DHT22;23625;48.784;9.336;2023-12-20T04:24:15;6.20;99.90
37786;DHT22;23625;48.784;9.336;2023-12-20T04:26:40;6.10;99.90
37786;DHT22;23625;48.784;9.336;2023-12-20T04:29:06;6.10;99.90
37786;DHT22;23625;48.784;9.336;2023-12-20T04:31:31;6.10;99.90
37786;DHT22;23625;48.784;9.336;2023-12-20T04:33:57;6.20;99.90
37786;DHT22;23625;48.784;9.336;2023-12-20T04:36:23;6.10;99.90
37786;DHT22;23625;48.784;9.336;2023-12-20T04:38:50;6.00;99.90
37786;DHT22;23625;48.784;9.336;2023-12-20T04:41:15;6.00;99.90
37786;DHT22;23625;48.784;9.336;2023-12-20T04:43:41;6.00;99.90
37786;DHT22;23625;48.784;9.336;2023-12-20T04:46:07;5.90;99.90
37786;DHT22;23625;48.784;9.336;2023-12-20T04:48:32;5.90;99.90
37786;DHT22;23625;48.784;9.336;2023-12-20T04:50:58;6.10;99.90
37786;DHT22;23625;48.784;9.336;2023-12-20T04:53:23;6.00;99.90
37786;DHT22;23625;48.784;9.336;2023-12-20T04:55:49;5.90;99.90
37786;DHT22;23625;48.784;9.336;2023-12-20T04:58:15;5.90;99.90
37786;DHT22;23625;48.784;9.336;2023-12-20T05:00:40;5.90;99.90
37786;DHT22;23625;48.784;9.336;2023-12-20T05:03:06;5.90;99.90
37786;DHT22;23625;48.784;9.336;2023-12-20T05:05:31;5.80;99.90
37786;DHT22;23625;48.784;9.336;2023-12-20T05:07:57;5.90;99.90
37786;DHT22;23625;48.784;9.336;2023-12-20T05:10:23;5.80;99.90
37786;DHT22;23625;48.784;9.336;2023-12-20T05:12:48;5.90;99.90
37786;DHT22;23625;48.784;9.336;2023-12-20T05:15:14;5.80;99.90
37786;DHT22;23625;48.784;9.336;2023-12-20T05:17:39;5.80;99.90
37786;DHT22;23625;48.784;9.336;2023-12-20T05:20:05;5.80;99.90
37786;DHT22;23625;48.784;9.336;2023-12-20T05:22:31;5.70;99.90
37786;DHT22;23625;48.784;9.336;2023-12-20T05:24:57;5.70;99.90
37786;DHT22;23625;48.784;9.336;2023-12-20T05:27:22;5.70;99.90
37786;DHT22;23625;48.784;9.336;2023-12-20T05:29:48;5.70;99.90
37786;DHT22;23625;48.784;9.336;2023-12-20T05:32:13;5.70;99.90
37786;DHT22;23625;48.784;9.336;2023-12-20T05:34:39;5.70;99.90
37786;DHT22;23625;48.784;9.336;2023-12-20T05:37:05;5.70;99.90
37786;DHT22;23625;48.784;9.336;2023-12-20T05:39:30;5.60;99.90
37786;DHT22;23625;48.784;9.336;2023-12-20T05:41:56;5.60;99.90
37786;DHT22;23625;48.784;9.336;2023-12-20T05:44:22;5.60;99.90
37786;DHT22;23625;48.784;9.336;2023-12-20T05:46:47;5.60;99.90
37786;DHT22;23625;48.784;9.336;2023-12-20T05:49:13;5.60;99.90
37786;DHT22;23625;48.784;9.336;2023-12-20T05:51:39;5.60;99.90
37786;DHT22;23625;48.784;9.336;2023-12-20T05:54:04;5.70;99.90
37786;DHT22;23625;48.784;9.336;2023-12-20T05:56:30;5.70;99.90
37786;DHT22;23625;48.784;9.336;2023-12-20T05:58:56;5.70;99.90
37786;DHT22;23625;48.784;9.336;2023-12-20T06:01:21;5.60;99.90
37786;DHT22;23625;48.784;9.336;2023-12-20T06:03:47;5.70;99.90
37786;DHT22;23625;48.784;9.336;2023-12-20T06:06:12;5.60;99.90
37786;DHT22;23625;48.784;9.336;2023-12-20T06:08:38;5.60;99.90
37786;DHT22;23625;48.784;9.336;2023-12-20T06:11:04;5.60;99.90
37786;DHT22;23625;48.784;9.336;2023-12-20T06:13:30;5.70;99.90
37786;DHT22;23625;48.784;9.336;2023-12-20T06:15:56;5.70;99.90
37786;DHT22;23625;48.784;9.336;2023-12-20T06:18:22;5.70;99.90
37786;DHT22;23625;48.784;9.336;2023-12-20T06:20:48;5.70;99.90
37786;DHT22;23625;48.784;9.336;2023-12-20T06:23:14;5.70;99.90
37786;DHT22;23625;48.784;9.336;2023-12-20T06:25:39;5.70;99.90
37786;DHT22;23625;48.784;9.336;2023-12-20T06:28:05;5.70;99.90
37786;DHT22;23625;48.784;9.336;2023-12-20T06:30:31;5.70;99.90
37786;DHT22;23625;48.784;9.336;2023-12-20T06:32:58;5.60;99.90
37786;DHT22;23625;48.784;9.336;2023-12-20T06:35:24;5.70;99.90
37786;DHT22;23625;48.784;9.336;2023-12-20T06:37:50;5.60;99.90
37786;DHT22;23625;48.784;9.336;2023-12-20T06:40:15;5.60;99.90
37786;DHT22;23625;48.784;9.336;2023-12-20T06:42:41;5.70;99.90
37786;DHT22;23625;48.784;9.336;2023-12-20T06:45:07;5.70;99.90
37786;DHT22;23625;48.784;9.336;2023-12-20T06:47:33;5.70;99.90
37786;DHT22;23625;48.784;9.336;2023-12-20T06:49:59;5.60;99.90
37786;DHT22;23625;48.784;9.336;2023-12-20T06:52:24;5.60;99.90
37786;DHT22;23625;48.784;9.336;2023-12-20T06:54:50;5.60;99.90
37786;DHT22;23625;48.784;9.336;2023-12-20T06:57:16;5.60;99.90
37786;DHT22;23625;48.784;9.336;2023-12-20T06:59:41;5.60;99.90
37786;DHT22;23625;48.784;9.336;2023-12-20T07:02:08;5.60;99.90
37786;DHT22;23625;48.784;9.336;2023-12-20T07:04:34;5.60;99.90
37786;DHT22;23625;48.784;9.336;2023-12-20T07:06:59;5.60;99.90
37786;DHT22;23625;48.784;9.336;2023-12-20T07:09:26;5.60;99.90
37786;DHT22;23625;48.784;9.336;2023-12-20T07:11:52;5.60;99.90
37786;DHT22;23625;48.784;9.336;2023-12-20T07:14:18;5.70;99.90
37786;DHT22;23625;48.784;9.336;2023-12-20T07:16:44;5.70;99.90
37786;DHT22;23625;48.784;9.336;2023-12-20T07:19:09;5.70;99.90
37786;DHT22;23625;48.784;9.336;2023-12-20T07:21:35;5.70;99.90
37786;DHT22;23625;48.784;9.336;2023-12-20T07:24:00;5.70;99.90
37786;DHT22;23625;48.784;9.336;2023-12-20T07:26:26;5.60;99.90
37786;DHT22;23625;48.784;9.336;2023-12-20T07:28:51;5.60;99.90
37786;DHT22;23625;48.784;9.336;2023-12-20T07:31:17;5.60;99.90
37786;DHT22;23625;48.784;9.336;2023-12-20T07:33:43;5.60;99.90
37786;DHT22;23625;48.784;9.336;2023-12-20T07:36:08;5.70;99.90
37786;DHT22;23625;48.784;9.336;2023-12-20T07:38:34;5.80;99.90
37786;DHT22;23625;48.784;9.336;2023-12-20T07:41:00;5.80;99.90
37786;DHT22;23625;48.784;9.336;2023-12-20T07:43:25;5.90;99.90
37786;DHT22;23625;48.784;9.336;2023-12-20T07:45:51;5.80;99.90
37786;DHT22;23625;48.784;9.336;2023-12-20T07:48:16;5.80;99.90
37786;DHT22;23625;48.784;9.336;2023-12-20T07:50:42;6.00;99.90
37786;DHT22;23625;48.784;9.336;2023-12-20T07:53:08;6.00;99.90
37786;DHT22;23625;48.784;9.336;2023-12-20T07:55:33;6.00;99.90
37786;DHT22;23625;48.784;9.336;2023-12-20T07:58:00;6.10;99.90
37786;DHT22;23625;48.784;9.336;2023-12-20T08:00:26;6.00;99.90
37786;DHT22;23625;48.784;9.336;2023-12-20T08:02:51;6.00;99.90
37786;DHT22;23625;48.784;9.336;2023-12-20T08:05:17;6.10;99.90
37786;DHT22;23625;48.784;9.336;2023-12-20T08:07:43;5.90;99.90
37786;DHT22;23625;48.784;9.336;2023-12-20T08:10:08;5.90;99.90
37786;DHT22;23625;48.784;9.336;2023-12-20T08:12:34;6.00;99.90
37786;DHT22;23625;48.784;9.336;2023-12-20T08:15:00;6.00;99.90
37786;DHT22;23625;48.784;9.336;2023-12-20T08:17:25;6.00;99.90
37786;DHT22;23625;48.784;9.336;2023-12-20T08:19:51;6.00;99.90
37786;DHT22;23625;48.784;9.336;2023-12-20T08:22:17;6.10;99.90
37786;DHT22;23625;48.784;9.336;2023-12-20T08:24:42;6.00;99.90
37786;DHT22;23625;48.784;9.336;2023-12-20T08:27:08;5.80;99.90
37786;DHT22;23625;48.784;9.336;2023-12-20T08:29:35;5.90;99.90
37786;DHT22;23625;48.784;9.336;2023-12-20T08:32:00;5.90;99.90
37786;DHT22;23625;48.784;9.336;2023-12-20T08:34:26;5.80;99.90
37786;DHT22;23625;48.784;9.336;2023-12-20T08:36:52;5.70;99.90
37786;DHT22;23625;48.784;9.336;2023-12-20T08:39:17;5.80;99.90
37786;DHT22;23625;48.784;9.336;2023-12-20T08:41:43;5.80;99.90
37786;DHT22;23625;48.784;9.336;2023-12-20T08:44:09;5.80;99.90
37786;DHT22;23625;48.784;9.336;2023-12-20T08:46:35;5.80;99.90
37786;DHT22;23625;48.784;9.336;2023-12-20T08:49:02;5.70;99.90
37786;DHT22;23625;48.784;9.336;2023-12-20T08:51:27;5.70;99.90
37786;DHT22;23625;48.784;9.336;2023-12-20T08:53:53;5.70;99.90
37786;DHT22;23625;48.784;9.336;2023-12-20T08:56:19;5.90;99.90
37786;DHT22;23625;48.784;9.336;2023-12-20T08:58:48;5.90;99.90
37786;DHT22;23625;48.784;9.336;2023-12-20T09:01:14;5.90;99.90
37786;DHT22;23625;48.784;9.336;2023-12-20T09:03:40;5.90;99.90
37786;DHT22;23625;48.784;9.336;2023-12-20T09:06:06;6.00;99.90
37786;DHT22;23625;48.784;9.336;2023-12-20T09:08:32;6.10;99.90
37786;DHT22;23625;48.784;9.336;2023-12-20T09:10:57;6.20;99.90
37786;DHT22;23625;48.784;9.336;2023-12-20T09:13:23;6.30;99.90
37786;DHT22;23625;48.784;9.336;2023-12-20T09:15:55;6.40;99.90
37786;DHT22;23625;48.784;9.336;2023-12-20T09:18:20;6.50;99.90
37786;DHT22;23625;48.784;9.336;2023-12-20T09:20:46;6.80;99.90
37786;DHT22;23625;48.784;9.336;2023-12-20T09:23:12;6.70;99.90
37786;DHT22;23625;48.784;9.336;2023-12-20T09:25:37;6.90;99.90
37786;DHT22;23625;48.784;9.336;2023-12-20T09:28:03;6.90;99.90
37786;DHT22;23625;48.784;9.336;2023-12-20T09:30:29;7.00;99.90
37786;DHT22;23625;48.784;9.336;2023-12-20T09:32:55;7.00;99.90
37786;DHT22;23625;48.784;9.336;2023-12-20T09:35:20;7.10;99.90
37786;DHT22;23625;48.784;9.336;2023-12-20T09:37:46;7.30;99.90
37786;DHT22;23625;48.784;9.336;2023-12-20T09:40:13;7.20;99.90
37786;DHT22;23625;48.784;9.336;2023-12-20T09:45:15;7.50;99.90
37786;DHT22;23625;48.784;9.336;2023-12-20T09:47:43;7.50;99.90
37786;DHT22;23625;48.784;9.336;2023-12-20T09:50:09;7.60;99.90
37786;DHT22;23625;48.784;9.336;2023-12-20T09:52:36;7.70;99.90
37786;DHT22;23625;48.784;9.336;2023-12-20T09:55:03;7.90;99.90
37786;DHT22;23625;48.784;9.336;2023-12-20T09:57:32;8.00;99.90
37786;DHT22;23625;48.784;9.336;2023-12-20T09:59:57;8.10;99.90
37786;DHT22;23625;48.784;9.336;2023-12-20T10:02:25;8.10;99.90
37786;DHT22;23625;48.784;9.336;2023-12-20T10:04:54;8.00;99.90
37786;DHT22;23625;48.784;9.336;2023-12-20T10:07:19;8.00;97.90
37786;DHT22;23625;48.784;9.336;2023-12-20T10:09:46;8.00;98.80
37786;DHT22;23625;48.784;9.336;2023-12-20T10:12:12;8.10;96.00
37786;DHT22;23625;48.784;9.336;2023-12-20T10:14:39;7.90;93.90
37786;DHT22;23625;48.784;9.336;2023-12-20T10:17:05;7.80;94.60
37786;DHT22;23625;48.784;9.336;2023-12-20T10:19:31;7.90;99.30
37786;DHT22;23625;48.784;9.336;2023-12-20T10:22:00;7.90;93.80
37786;DHT22;23625;48.784;9.336;2023-12-20T10:24:28;7.80;94.60
37786;DHT22;23625;48.784;9.336;2023-12-20T10:27:05;8.10;95.80
37786;DHT22;23625;48.784;9.336;2023-12-20T10:29:37;8.30;92.90
37786;DHT22;23625;48.784;9.336;2023-12-20T10:32:23;8.50;96.20
37786;DHT22;23625;48.784;9.336;2023-12-20T10:34:55;8.70;93.90
37786;DHT22;23625;48.784;9.336;2023-12-20T10:37:21;8.80;89.90
37786;DHT22;23625;48.784;9.336;2023-12-20T10:39:51;8.50;90.30
37786;DHT22;23625;48.784;9.336;2023-12-20T10:42:22;8.10;89.10
37786;DHT22;23625;48.784;9.336;2023-12-20T10:44:49;7.80;89.50
37786;DHT22;23625;48.784;9.336;2023-12-20T10:47:15;7.60;90.30
37786;DHT22;23625;48.784;9.336;2023-12-20T10:49:41;7.50;90.10
37786;DHT22;23625;48.784;9.336;2023-12-20T10:52:09;7.40;91.90
37786;DHT22;23625;48.784;9.336;2023-12-20T10:54:34;7.20;91.00
37786;DHT22;23625;48.784;9.336;2023-12-20T10:57:00;7.10;93.00
37786;DHT22;23625;48.784;9.336;2023-12-20T10:59:29;7.10;93.60
37786;DHT22;23625;48.784;9.336;2023-12-20T11:01:58;6.90;97.50
37786;DHT22;23625;48.784;9.336;2023-12-20T11:04:36;6.80;97.50
37786;DHT22;23625;48.784;9.336;2023-12-20T11:07:15;6.80;96.80
37786;DHT22;23625;48.784;9.336;2023-12-20T11:09:48;6.80;97.90
37786;DHT22;23625;48.784;9.336;2023-12-20T11:12:20;6.70;97.30
37786;DHT22;23625;48.784;9.336;2023-12-20T11:14:50;6.80;95.20
37786;DHT22;23625;48.784;9.336;2023-12-20T11:17:16;6.70;98.30
37786;DHT22;23625;48.784;9.336;2023-12-20T11:22:29;6.60;95.20
37786;DHT22;23625;48.784;9.336;2023-12-20T11:25:06;6.50;94.70
37786;DHT22;23625;48.784;9.336;2023-12-20T11:27:35;6.50;94.90
37786;DHT22;23625;48.784;9.336;2023-12-20T11:30:03;6.50;94.60
37786;DHT22;23625;48.784;9.336;2023-12-20T11:32:34;6.70;93.40
37786;DHT22;23625;48.784;9.336;2023-12-20T11:35:17;6.60;95.60
37786;DHT22;23625;48.784;9.336;2023-12-20T11:37:43;6.70;94.00
37786;DHT22;23625;48.784;9.336;2023-12-20T11:40:13;6.70;96.20
37786;DHT22;23625;48.784;9.336;2023-12-20T11:42:41;6.70;98.30
37786;DHT22;23625;48.784;9.336;2023-12-20T11:45:22;6.70;97.30
37786;DHT22;23625;48.784;9.336;2023-12-20T11:47:50;6.70;96.90
37786;DHT22;23625;48.784;9.336;2023-12-20T11:50:19;6.60;99.50
37786;DHT22;23625;48.784;9.336;2023-12-20T11:52:45;6.50;99.90
37786;DHT22;23625;48.784;9.336;2023-12-20T11:55:11;6.50;99.90
37786;DHT22;23625;48.784;9.336;2023-12-20T11:57:37;6.50;99.90
37786;DHT22;23625;48.784;9.336;2023-12-20T12:00:03;6.60;99.90
37786;DHT22;23625;48.784;9.336;2023-12-20T12:02:30;6.50;99.90
37786;DHT22;23625;48.784;9.336;2023-12-20T12:04:56;6.50;99.90
37786;DHT22;23625;48.784;9.336;2023-12-20T12:07:22;6.50;99.90
37786;DHT22;23625;48.784;9.336;2023-12-20T12:09:48;6.50;99.70
37786;DHT22;23625;48.784;9.336;2023-12-20T12:12:13;6.40;99.90
37786;DHT22;23625;48.784;9.336;2023-12-20T12:14:39;6.40;99.90
37786;DHT22;23625;48.784;9.336;2023-12-20T12:17:13;6.40;99.90
37786;DHT22;23625;48.784;9.336;2023-12-20T12:19:43;6.40;98.30
37786;DHT22;23625;48.784;9.336;2023-12-20T12:22:15;6.50;96.50
37786;DHT22;23625;48.784;9.336;2023-12-20T12:24:48;6.50;95.90
37786;DHT22;23625;48.784;9.336;2023-12-20T12:27:15;6.50;95.60
37786;DHT22;23625;48.784;9.336;2023-12-20T12:29:43;6.50;95.60
37786;DHT22;23625;48.784;9.336;2023-12-20T12:32:25;6.50;95.00
37786;DHT22;23625;48.784;9.336;2023-12-20T12:34:50;6.50;95.10
37786;DHT22;23625;48.784;9.336;2023-12-20T12:37:16;6.50;94.10
37786;DHT22;23625;48.784;9.336;2023-12-20T12:39:42;6.50;95.50
37786;DHT22;23625;48.784;9.336;2023-12-20T12:42:08;6.50;97.70
37786;DHT22;23625;48.784;9.336;2023-12-20T12:44:33;6.50;98.30
37786;DHT22;23625;48.784;9.336;2023-12-20T12:46:59;6.50;99.40
37786;DHT22;23625;48.784;9.336;2023-12-20T12:49:24;6.50;98.70
37786;DHT22;23625;48.784;9.336;2023-12-20T12:51:51;6.50;98.80
37786;DHT22;23625;48.784;9.336;2023-12-20T12:54:16;6.60;97.30
37786;DHT22;23625;48.784;9.336;2023-12-20T12:56:43;6.50;97.30
37786;DHT22;23625;48.784;9.336;2023-12-20T12:59:10;6.60;96.40
37786;DHT22;23625;48.784;9.336;2023-12-20T13:01:35;6.60;96.80
37786;DHT22;23625;48.784;9.336;2023-12-20T13:04:01;6.70;95.80
37786;DHT22;23625;48.784;9.336;2023-12-20T13:06:29;6.60;96.20
37786;DHT22;23625;48.784;9.336;2023-12-20T13:08:54;6.60;97.00
37786;DHT22;23625;48.784;9.336;2023-12-20T13:11:20;6.50;97.30
37786;DHT22;23625;48.784;9.336;2023-12-20T13:13:46;6.50;96.10
37786;DHT22;23625;48.784;9.336;2023-12-20T13:16:12;6.60;93.70
37786;DHT22;23625;48.784;9.336;2023-12-20T13:18:38;6.70;94.80
37786;DHT22;23625;48.784;9.336;2023-12-20T13:21:07;6.60;95.10
37786;DHT22;23625;48.784;9.336;2023-12-20T13:23:33;6.60;96.40
37786;DHT22;23625;48.784;9.336;2023-12-20T13:25:59;6.60;96.90
37786;DHT22;23625;48.784;9.336;2023-12-20T13:28:24;6.60;99.10
37786;DHT22;23625;48.784;9.336;2023-12-20T13:30:50;6.80;93.50
37786;DHT22;23625;48.784;9.336;2023-12-20T13:33:15;6.80;93.50
37786;DHT22;23625;48.784;9.336;2023-12-20T13:35:41;6.90;92.80
37786;DHT22;23625;48.784;9.336;2023-12-20T13:38:06;6.80;93.00
37786;DHT22;23625;48.784;9.336;2023-12-20T13:40:33;6.70;92.70
37786;DHT22;23625;48.784;9.336;2023-12-20T13:42:58;6.90;93.00
37786;DHT22;23625;48.784;9.336;2023-12-20T13:45:24;6.90;92.60
37786;DHT22;23625;48.784;9.336;2023-12-20T13:47:50;7.00;92.50
37786;DHT22;23625;48.784;9.336;2023-12-20T13:50:16;6.90;93.30
37786;DHT22;23625;48.784;9.336;2023-12-20T13:52:42;7.00;92.50
37786;DHT22;23625;48.784;9.336;2023-12-20T13:55:07;6.90;92.40
37786;DHT22;23625;48.784;9.336;2023-12-20T13:57:33;6.90;92.90
37786;DHT22;23625;48.784;9.336;2023-12-20T13:59:59;7.00;92.50
37786;DHT22;23625;48.784;9.336;2023-12-20T14:02:25;6.90;93.10
37786;DHT22;23625;48.784;9.336;2023-12-20T14:04:52;6.90;92.20
37786;DHT22;23625;48.784;9.336;2023-12-20T14:07:18;6.90;92.90
37786;DHT22;23625;48.784;9.336;2023-12-20T14:09:43;6.80;92.00
37786;DHT22;23625;48.784;9.336;2023-12-20T14:12:11;6.80;92.50
37786;DHT22;23625;48.784;9.336;2023-12-20T14:14:36;6.80;91.90
37786;DHT22;23625;48.784;9.336;2023-12-20T14:17:02;6.90;92.50
37786;DHT22;23625;48.784;9.336;2023-12-20T14:19:29;6.80;93.20
37786;DHT22;23625;48.784;9.336;2023-12-20T14:21:54;6.80;94.30
37786;DHT22;23625;48.784;9.336;2023-12-20T14:24:20;6.70;95.60
37786;DHT22;23625;48.784;9.336;2023-12-20T14:26:46;6.60;97.40
37786;DHT22;23625;48.784;9.336;2023-12-20T14:29:12;6.50;99.10
37786;DHT22;23625;48.784;9.336;2023-12-20T14:31:37;6.50;99.70
37786;DHT22;23625;48.784;9.336;2023-12-20T14:34:04;6.40;99.90
37786;DHT22;23625;48.784;9.336;2023-12-20T14:36:30;6.40;99.50
37786;DHT22;23625;48.784;9.336;2023-12-20T14:38:56;6.40;99.90
37786;DHT22;23625;48.784;9.336;2023-12-20T14:41:22;6.60;99.90
37786;DHT22;23625;48.784;9.336;2023-12-20T14:43:50;6.50;99.90
37786;DHT22;23625;48.784;9.336;2023-12-20T14:46:17;6.50;99.90
37786;DHT22;23625;48.784;9.336;2023-12-20T14:48:42;6.40;99.90
37786;DHT22;23625;48.784;9.336;2023-12-20T14:51:08;6.30;99.90
37786;DHT22;23625;48.784;9.336;2023-12-20T14:53:34;6.30;99.90
37786;DHT22;23625;48.784;9.336;2023-12-20T14:56:05;6.40;99.90
37786;DHT22;23625;48.784;9.336;2023-12-20T14:58:31;6.20;99.90
37786;DHT22;23625;48.784;9.336;2023-12-20T15:00:57;6.30;99.90
37786;DHT22;23625;48.784;9.336;2023-12-20T15:03:26;6.30;99.90
37786;DHT22;23625;48.784;9.336;2023-12-20T15:05:51;6.30;99.90
37786;DHT22;23625;48.784;9.336;2023-12-20T15:08:17;6.30;99.90
37786;DHT22;23625;48.784;9.336;2023-12-20T15:10:42;6.20;99.90
37786;DHT22;23625;48.784;9.336;2023-12-20T15:13:08;6.20;99.90
37786;DHT22;23625;48.784;9.336;2023-12-20T15:15:34;6.10;99.90
37786;DHT22;23625;48.784;9.336;2023-12-20T15:18:00;6.10;99.90
37786;DHT22;23625;48.784;9.336;2023-12-20T15:20:26;6.10;99.90
37786;DHT22;23625;48.784;9.336;2023-12-20T15:22:51;6.10;99.90
37786;DHT22;23625;48.784;9.336;2023-12-20T15:25:18;6.00;99.90
37786;DHT22;23625;48.784;9.336;2023-12-20T15:27:50;6.00;99.90
37786;DHT22;23625;48.784;9.336;2023-12-20T15:30:19;6.00;99.90
37786;DHT22;23625;48.784;9.336;2023-12-20T15:32:45;5.90;99.90
37786;DHT22;23625;48.784;9.336;2023-12-20T15:35:11;5.90;99.90
37786;DHT22;23625;48.784;9.336;2023-12-20T15:37:38;5.90;99.90
37786;DHT22;23625;48.784;9.336;2023-12-20T15:40:05;5.90;99.90
37786;DHT22;23625;48.784;9.336;2023-12-20T15:42:30;5.80;99.90
37786;DHT22;23625;48.784;9.336;2023-12-20T15:44:57;5.80;99.90